METAR Data
IDs: Format: Raw Decoded Include TAF

Data at: 0129 UTC 01 Mar 2021

URMT 010100Z 30005MPS 1700 R25/P2000N SN BKN003 OVC020 M00/M01 Q1020 R25/290250 NOSIG RMK QBB090 OBST OBSC QFE726